createdAt,value
2018-01-15T00:02:08.237Z,3.80
2018-01-15T00:04:36.718Z,3.80
2018-01-15T00:07:04.303Z,3.80
2018-01-15T00:09:31.972Z,3.80
2018-01-15T00:12:01.046Z,3.80
2018-01-15T00:14:29.374Z,3.90
2018-01-15T00:16:56.954Z,3.90
2018-01-15T00:19:25.025Z,3.90
2018-01-15T00:21:52.675Z,3.80
2018-01-15T00:24:20.224Z,3.90
2018-01-15T00:26:47.801Z,3.80
2018-01-15T00:29:15.880Z,3.90
2018-01-15T00:31:43.404Z,3.80
2018-01-15T00:34:10.928Z,3.80
2018-01-15T00:36:38.486Z,3.80
2018-01-15T00:39:06.747Z,3.80
2018-01-15T00:41:35.099Z,3.80
2018-01-15T00:44:02.674Z,3.80
2018-01-15T00:46:30.281Z,3.80
2018-01-15T00:48:57.876Z,3.80
2018-01-15T00:51:26.501Z,3.80
2018-01-15T00:53:55.569Z,3.80
2018-01-15T00:56:23.180Z,3.80
2018-01-15T00:58:50.701Z,3.80
2018-01-15T01:01:18.293Z,3.80
2018-01-15T01:03:45.911Z,3.80
2018-01-15T01:06:13.432Z,3.80
2018-01-15T01:08:42.006Z,3.70
2018-01-15T01:11:10.335Z,3.70
2018-01-15T01:13:37.891Z,3.70
2018-01-15T01:16:05.572Z,3.70
2018-01-15T01:18:33.137Z,3.70
2018-01-15T01:21:00.676Z,3.70
2018-01-15T01:23:29.069Z,3.70
2018-01-15T01:25:56.728Z,3.70
2018-01-15T01:28:24.465Z,3.70
2018-01-15T01:30:52.028Z,3.70
2018-01-15T01:33:19.685Z,3.60
2018-01-15T01:35:47.230Z,3.60
2018-01-15T01:38:14.751Z,3.60
2018-01-15T01:40:42.344Z,3.60
2018-01-15T01:43:09.928Z,3.60
2018-01-15T01:45:37.496Z,3.60
2018-01-15T01:48:05.062Z,3.60
2018-01-15T01:50:32.620Z,3.50
2018-01-15T01:53:00.702Z,3.50
2018-01-15T01:55:28.251Z,3.40
2018-01-15T01:57:55.781Z,3.40
2018-01-15T02:00:23.471Z,3.40
2018-01-15T02:02:51.084Z,3.40
2018-01-15T02:05:18.695Z,3.40
2018-01-15T02:07:46.271Z,3.40
2018-01-15T02:10:13.841Z,3.40
2018-01-15T02:12:41.375Z,3.40
2018-01-15T02:15:09.037Z,3.30
2018-01-15T02:17:36.588Z,3.30
2018-01-15T02:20:05.506Z,3.40
2018-01-15T02:22:33.263Z,3.40
2018-01-15T02:25:00.872Z,3.50
2018-01-15T02:27:29.254Z,3.40
2018-01-15T02:29:57.561Z,3.40
2018-01-15T02:32:25.166Z,3.40
2018-01-15T02:34:53.480Z,3.40
2018-01-15T02:37:21.115Z,3.40
2018-01-15T02:39:48.731Z,3.40
2018-01-15T02:42:16.324Z,3.40
2018-01-15T02:44:44.678Z,3.40
2018-01-15T02:47:12.229Z,3.40
2018-01-15T02:49:39.761Z,3.50
2018-01-15T02:52:07.347Z,3.50
2018-01-15T02:54:34.958Z,3.50
2018-01-15T02:57:03.069Z,3.50
2018-01-15T02:59:30.661Z,3.50
2018-01-15T03:01:58.205Z,3.50
2018-01-15T03:04:26.058Z,3.50
2018-01-15T03:06:53.596Z,3.40
2018-01-15T03:09:21.128Z,3.40
2018-01-15T03:11:48.775Z,3.40
2018-01-15T03:14:16.331Z,3.40
2018-01-15T03:16:43.866Z,3.40
2018-01-15T03:19:11.427Z,3.40
2018-01-15T03:21:38.977Z,3.30
2018-01-15T03:24:06.546Z,3.30
2018-01-15T03:26:34.141Z,3.30
2018-01-15T03:29:01.929Z,3.30
2018-01-15T03:31:30.262Z,3.20
2018-01-15T03:33:57.828Z,3.20
2018-01-15T03:36:25.659Z,3.20
2018-01-15T03:38:53.245Z,3.30
2018-01-15T03:41:20.919Z,3.30
2018-01-15T03:43:48.574Z,3.20
2018-01-15T03:46:16.089Z,3.20
2018-01-15T03:48:44.400Z,3.20
2018-01-15T03:51:12.024Z,3.20
2018-01-15T03:53:39.638Z,3.20
2018-01-15T03:56:07.231Z,3.20
2018-01-15T03:58:35.532Z,3.30
2018-01-15T04:01:03.092Z,3.20
2018-01-15T04:03:30.672Z,3.20
2018-01-15T04:05:58.215Z,3.20
2018-01-15T04:08:26.569Z,3.30
2018-01-15T04:10:54.112Z,3.30
2018-01-15T04:13:22.524Z,3.20
2018-01-15T04:15:50.109Z,3.20
2018-01-15T04:18:17.668Z,3.20
2018-01-15T04:20:45.277Z,3.20
2018-01-15T04:23:12.926Z,3.20
2018-01-15T04:25:40.485Z,3.10
2018-01-15T04:28:08.070Z,3.10
2018-01-15T04:30:35.632Z,3.20
2018-01-15T04:33:03.271Z,3.20
2018-01-15T04:35:30.851Z,3.10
2018-01-15T04:37:59.164Z,3.10
2018-01-15T04:40:26.875Z,3.10
2018-01-15T04:42:54.428Z,3.10
2018-01-15T04:45:22.810Z,3.10
2018-01-15T04:47:50.383Z,3.10
2018-01-15T04:50:18.725Z,3.10
2018-01-15T04:52:46.276Z,3.10
2018-01-15T04:55:13.864Z,3.10
2018-01-15T04:57:41.441Z,3.10
2018-01-15T05:00:09.001Z,3.10
2018-01-15T05:02:36.561Z,3.10
2018-01-15T05:05:05.025Z,3.10
2018-01-15T05:07:32.662Z,3.10
2018-01-15T05:10:00.191Z,3.10
2018-01-15T05:12:27.814Z,3.10
2018-01-15T05:14:55.405Z,3.10
2018-01-15T05:17:22.996Z,2.90
2018-01-15T05:19:50.550Z,2.90
2018-01-15T05:22:18.115Z,3.00
2018-01-15T05:24:45.700Z,3.00
2018-01-15T05:27:13.256Z,3.00
2018-01-15T05:29:40.802Z,3.00
2018-01-15T05:32:08.395Z,3.00
2018-01-15T05:34:35.943Z,3.00
2018-01-15T05:37:04.352Z,3.00
2018-01-15T05:39:31.875Z,3.00
2018-01-15T05:41:59.397Z,3.00
2018-01-15T05:44:27.032Z,3.00
2018-01-15T05:46:54.582Z,2.90
2018-01-15T05:49:22.209Z,2.90
2018-01-15T05:51:49.744Z,2.90
2018-01-15T05:54:17.268Z,2.90
2018-01-15T05:56:45.599Z,2.90
2018-01-15T05:59:13.174Z,2.80
2018-01-15T06:01:40.698Z,2.90
2018-01-15T06:04:08.253Z,2.90
2018-01-15T06:06:36.652Z,2.90
2018-01-15T06:09:04.235Z,2.80
2018-01-15T06:11:31.784Z,2.90
2018-01-15T06:13:59.352Z,2.90
2018-01-15T06:16:26.896Z,2.80
2018-01-15T06:18:54.507Z,2.80
2018-01-15T06:21:22.063Z,2.80
2018-01-15T06:23:50.394Z,2.80
2018-01-15T06:26:17.979Z,2.80
2018-01-15T06:28:45.522Z,2.80
2018-01-15T06:31:13.835Z,2.70
2018-01-15T06:33:42.167Z,2.80
2018-01-15T06:36:09.743Z,2.70
2018-01-15T06:38:37.279Z,2.80
2018-01-15T06:41:04.838Z,2.70
2018-01-15T06:43:32.514Z,2.70
2018-01-15T06:46:00.074Z,2.70
2018-01-15T06:48:27.674Z,2.70
2018-01-15T06:50:56.034Z,2.80
2018-01-15T06:53:23.620Z,2.80
2018-01-15T06:55:51.248Z,2.80
2018-01-15T06:58:18.823Z,2.80
2018-01-15T07:00:46.499Z,2.80
2018-01-15T07:03:15.543Z,2.70
2018-01-15T07:05:43.139Z,2.70
2018-01-15T07:08:10.749Z,2.70
2018-01-15T07:10:38.595Z,2.80
2018-01-15T07:13:06.208Z,2.80
2018-01-15T07:15:33.824Z,2.80
2018-01-15T07:18:01.417Z,2.80
2018-01-15T07:20:29.043Z,2.80
2018-01-15T07:22:56.591Z,2.80
2018-01-15T07:25:24.889Z,2.80
2018-01-15T07:27:52.487Z,2.80
2018-01-15T07:30:20.078Z,2.90
2018-01-15T07:32:48.450Z,2.80
2018-01-15T07:35:16.807Z,2.90
2018-01-15T07:37:44.397Z,2.90
2018-01-15T07:40:12.025Z,2.90
2018-01-15T07:42:39.565Z,2.90
2018-01-15T07:45:07.160Z,2.80
2018-01-15T07:47:34.745Z,2.90
2018-01-15T07:50:02.325Z,2.90
2018-01-15T07:52:29.873Z,2.90
2018-01-15T07:54:57.480Z,2.90
2018-01-15T07:57:24.995Z,2.90
2018-01-15T07:59:52.545Z,2.90
2018-01-15T08:02:20.937Z,2.90
2018-01-15T08:04:48.529Z,2.90
2018-01-15T08:07:16.854Z,2.90
2018-01-15T08:09:44.470Z,3.00
2018-01-15T08:12:12.104Z,3.00
2018-01-15T08:14:39.632Z,3.00
2018-01-15T08:17:07.358Z,3.00
2018-01-15T08:19:34.932Z,2.90
2018-01-15T08:22:02.525Z,2.90
2018-01-15T08:24:30.912Z,3.00
2018-01-15T08:26:58.504Z,3.00
2018-01-15T08:29:26.083Z,3.00
2018-01-15T08:31:53.716Z,3.10
2018-01-15T08:34:21.434Z,3.10
2018-01-15T08:36:48.997Z,3.00
2018-01-15T08:39:17.361Z,3.00
2018-01-15T08:41:45.724Z,3.00
2018-01-15T08:44:13.337Z,3.00
2018-01-15T08:46:41.663Z,3.10
2018-01-15T08:49:09.283Z,3.10
2018-01-15T08:51:36.937Z,3.10
2018-01-15T08:54:04.581Z,3.00
2018-01-15T08:56:32.118Z,3.10
2018-01-15T08:58:59.691Z,3.20
2018-01-15T09:01:27.933Z,3.20
2018-01-15T09:03:55.569Z,3.20
2018-01-15T09:06:23.207Z,3.20
2018-01-15T09:08:51.545Z,3.10
2018-01-15T09:11:19.180Z,3.10
2018-01-15T09:13:46.739Z,3.20
2018-01-15T09:16:14.329Z,3.20
2018-01-15T09:18:41.888Z,3.30
2018-01-15T09:21:09.576Z,3.30
2018-01-15T09:23:37.141Z,3.30
2018-01-15T09:26:04.706Z,3.20
2018-01-15T09:28:32.341Z,3.20
2018-01-15T09:30:59.964Z,3.30
2018-01-15T09:33:27.600Z,3.20
2018-01-15T09:35:55.928Z,3.30
2018-01-15T09:38:23.473Z,3.20
2018-01-15T09:40:51.080Z,3.30
2018-01-15T09:43:18.703Z,3.30
2018-01-15T09:45:47.207Z,3.20
2018-01-15T09:48:14.826Z,3.20
2018-01-15T09:50:42.424Z,3.20
2018-01-15T09:53:10.033Z,3.20
2018-01-15T09:55:37.601Z,3.30
2018-01-15T09:58:05.182Z,3.30
2018-01-15T10:00:32.792Z,3.40
2018-01-15T10:03:00.349Z,3.40
2018-01-15T10:05:27.981Z,3.40
2018-01-15T10:07:56.294Z,3.40
2018-01-15T10:10:23.911Z,3.30
2018-01-15T10:12:51.538Z,3.40
2018-01-15T10:15:19.877Z,3.40
2018-01-15T10:17:47.448Z,3.40
2018-01-15T10:20:15.043Z,3.40
2018-01-15T10:22:42.723Z,3.30
2018-01-15T10:25:11.032Z,3.40
2018-01-15T10:27:39.387Z,3.60
2018-01-15T10:30:06.966Z,3.50
2018-01-15T10:32:34.529Z,3.50
2018-01-15T10:35:02.263Z,3.50
2018-01-15T10:37:29.931Z,3.50
2018-01-15T10:39:57.534Z,3.50
2018-01-15T10:42:25.152Z,3.50
2018-01-15T10:44:52.752Z,3.50
2018-01-15T10:47:20.269Z,3.60
2018-01-15T10:49:47.843Z,3.60
2018-01-15T10:52:15.407Z,3.60
2018-01-15T10:54:43.045Z,3.70
2018-01-15T10:57:10.594Z,3.70
2018-01-15T10:59:38.256Z,3.70
2018-01-15T11:02:06.186Z,3.70
2018-01-15T11:04:33.829Z,3.70
2018-01-15T11:07:01.410Z,3.70
2018-01-15T11:09:29.037Z,3.80
2018-01-15T11:11:56.691Z,3.90
2018-01-15T11:14:24.224Z,3.90
2018-01-15T11:16:51.750Z,3.90
2018-01-15T11:19:19.783Z,4.00
2018-01-15T11:21:47.341Z,4.00
2018-01-15T11:24:14.905Z,4.00
2018-01-15T11:26:42.476Z,3.80
2018-01-15T11:29:10.020Z,3.80
2018-01-15T11:31:37.583Z,3.90
2018-01-15T11:34:05.103Z,3.90
2018-01-15T11:36:33.432Z,3.80
2018-01-15T11:39:01.004Z,3.80
2018-01-15T11:41:28.839Z,3.80
2018-01-15T11:43:56.414Z,3.90
2018-01-15T11:46:23.931Z,3.90
2018-01-15T11:48:52.234Z,3.90
2018-01-15T11:51:19.778Z,3.90
2018-01-15T11:53:47.331Z,3.90
2018-01-15T11:56:14.820Z,3.90
2018-01-15T11:58:42.447Z,3.90
2018-01-15T12:01:10.119Z,4.00
2018-01-15T12:03:37.694Z,3.80
2018-01-15T12:06:05.291Z,3.90
2018-01-15T12:08:32.818Z,3.90
2018-01-15T12:11:00.376Z,3.90
2018-01-15T12:13:27.917Z,3.90
2018-01-15T12:15:55.497Z,3.90
2018-01-15T12:18:23.044Z,3.90
2018-01-15T12:20:50.927Z,4.00
2018-01-15T12:23:18.516Z,4.00
2018-01-15T12:25:46.183Z,3.90
2018-01-15T12:28:13.763Z,3.80
2018-01-15T12:30:41.336Z,3.90
2018-01-15T12:33:10.494Z,3.80
2018-01-15T12:35:38.077Z,3.80
2018-01-15T12:38:05.678Z,3.70
2018-01-15T12:40:33.228Z,3.70
2018-01-15T12:43:00.826Z,3.80
2018-01-15T12:45:28.371Z,3.80
2018-01-15T12:47:55.965Z,3.80
2018-01-15T12:50:24.406Z,3.80
2018-01-15T12:52:51.941Z,3.90
2018-01-15T12:55:19.543Z,3.80
2018-01-15T12:57:47.881Z,3.90
2018-01-15T13:00:15.687Z,3.90
2018-01-15T13:02:43.290Z,3.90
2018-01-15T13:05:11.617Z,3.90
2018-01-15T13:07:50.879Z,3.90
2018-01-15T13:10:19.165Z,3.80
2018-01-15T13:12:47.576Z,3.80
2018-01-15T13:15:15.450Z,3.70
2018-01-15T13:17:43.061Z,3.70
2018-01-15T13:20:11.327Z,3.70
2018-01-15T13:22:38.927Z,3.80
2018-01-15T13:25:07.267Z,3.60
2018-01-15T13:27:35.785Z,3.60
2018-01-15T13:30:03.760Z,3.50
2018-01-15T13:32:32.101Z,3.50
2018-01-15T13:34:59.717Z,3.50
2018-01-15T13:37:27.344Z,3.50
2018-01-15T13:39:54.957Z,3.50
2018-01-15T13:42:22.501Z,3.40
2018-01-15T13:44:50.111Z,3.40
2018-01-15T13:47:17.714Z,3.30
2018-01-15T13:49:46.869Z,3.40
2018-01-15T13:52:14.455Z,3.40
2018-01-15T13:54:42.763Z,3.50
2018-01-15T13:57:10.375Z,3.50
2018-01-15T13:59:40.396Z,3.50
2018-01-15T14:02:09.444Z,3.50
2018-01-15T14:04:40.149Z,3.50
2018-01-15T14:07:09.287Z,3.50
2018-01-15T14:09:38.080Z,3.40
2018-01-15T14:12:06.067Z,3.40
2018-01-15T14:14:34.083Z,3.40
2018-01-15T14:17:02.509Z,3.40
2018-01-15T14:19:30.144Z,3.40
2018-01-15T14:21:57.717Z,3.40
2018-01-15T14:24:26.124Z,3.40
2018-01-15T14:26:53.848Z,3.40
2018-01-15T14:29:21.425Z,3.30
2018-01-15T14:31:49.608Z,3.20
2018-01-15T14:34:17.991Z,3.30
2018-01-15T14:36:45.561Z,3.30
2018-01-15T14:39:13.144Z,3.20
2018-01-15T14:41:41.524Z,3.30
2018-01-15T14:44:09.980Z,3.30
2018-01-15T14:46:37.563Z,3.30
2018-01-15T14:49:06.398Z,3.10
2018-01-15T14:51:34.900Z,3.10
2018-01-15T14:54:02.471Z,3.20
2018-01-15T14:56:30.215Z,3.20
2018-01-15T14:58:58.624Z,3.20
2018-01-15T15:01:26.880Z,3.10
2018-01-15T15:03:55.287Z,3.20
2018-01-15T15:06:23.857Z,3.20
2018-01-15T15:08:51.510Z,3.10
2018-01-15T15:11:19.112Z,3.20
2018-01-15T15:13:47.669Z,3.10
2018-01-15T15:16:15.235Z,3.10
2018-01-15T15:18:43.559Z,3.00
2018-01-15T15:21:11.178Z,3.00
2018-01-15T15:23:38.728Z,3.00
2018-01-15T15:26:06.282Z,3.10
2018-01-15T15:28:33.977Z,3.20
2018-01-15T15:31:02.406Z,3.10
2018-01-15T15:33:29.954Z,3.10
2018-01-15T15:35:57.486Z,3.00
2018-01-15T15:38:26.411Z,3.00
2018-01-15T15:40:53.961Z,3.00
2018-01-15T15:43:21.543Z,3.00
2018-01-15T15:45:49.068Z,3.00
2018-01-15T15:48:16.617Z,3.00
2018-01-15T15:50:44.234Z,3.00
2018-01-15T15:53:11.871Z,3.00
2018-01-15T15:55:39.420Z,3.10
2018-01-15T16:11:03.130Z,2.50
2018-01-15T16:13:31.106Z,2.50
2018-01-15T16:15:59.493Z,2.60
2018-01-15T16:18:27.050Z,2.50
2018-01-15T16:20:54.630Z,2.60
2018-01-15T16:23:22.248Z,2.70
2018-01-15T16:25:50.621Z,2.70
2018-01-15T16:28:19.305Z,2.70
2018-01-15T16:30:46.865Z,2.80
2018-01-15T16:33:14.698Z,2.80
2018-01-15T16:35:42.311Z,2.70
2018-01-15T16:38:09.879Z,2.70
2018-01-15T16:40:37.524Z,2.80
2018-01-15T16:43:05.089Z,2.90
2018-01-15T16:45:32.683Z,2.90
2018-01-15T16:48:00.940Z,2.90
2018-01-15T16:50:29.313Z,3.00
2018-01-15T16:52:58.280Z,2.90
2018-01-15T16:55:27.695Z,3.00
2018-01-15T16:57:56.947Z,3.00
2018-01-15T17:00:25.376Z,3.00
2018-01-15T17:02:53.760Z,3.00
2018-01-15T17:05:22.176Z,3.00
2018-01-15T17:07:49.762Z,3.00
2018-01-15T17:10:17.344Z,3.10
2018-01-15T17:12:44.935Z,3.00
2018-01-15T17:15:13.272Z,3.10
2018-01-15T17:17:40.913Z,3.00
2018-01-15T17:20:09.009Z,3.00
2018-01-15T17:22:36.643Z,3.00
2018-01-15T17:25:05.844Z,3.00
2018-01-15T17:37:25.056Z,3.00
2018-01-15T17:42:55.862Z,2.90
2018-01-15T17:45:44.733Z,2.90
2018-01-15T17:48:13.585Z,2.80
2018-01-15T17:50:41.178Z,2.80
2018-01-15T17:53:08.917Z,2.80
2018-01-15T17:55:36.516Z,2.80
2018-01-15T17:58:04.086Z,2.90
2018-01-15T18:00:32.753Z,2.80
2018-01-15T18:03:01.572Z,2.80
2018-01-15T18:05:29.241Z,2.80
2018-01-15T18:07:56.811Z,2.70
2018-01-15T18:10:24.362Z,2.60
2018-01-15T18:12:52.088Z,2.60
2018-01-15T18:15:19.634Z,2.60
2018-01-15T18:17:47.244Z,2.60
2018-01-15T18:20:15.069Z,2.70
2018-01-15T18:22:42.644Z,2.70
2018-01-15T18:25:10.224Z,2.70
2018-01-15T18:27:37.887Z,2.60
2018-01-15T18:30:05.710Z,2.70
2018-01-15T18:32:33.359Z,2.70
2018-01-15T18:35:00.954Z,2.60
2018-01-15T18:37:28.671Z,2.60
2018-01-15T18:39:56.311Z,2.70
2018-01-15T18:42:23.959Z,2.70
2018-01-15T18:44:52.292Z,2.70
2018-01-15T18:47:19.906Z,2.70
2018-01-15T18:49:48.222Z,2.50
2018-01-15T18:52:15.774Z,2.50
2018-01-15T18:54:43.358Z,2.50
2018-01-15T18:57:10.920Z,2.60
2018-01-15T18:59:38.527Z,2.60
2018-01-15T19:02:07.110Z,2.60
2018-01-15T19:04:34.708Z,2.60
2018-01-15T19:07:02.279Z,2.50
2018-01-15T19:09:29.846Z,2.50
2018-01-15T19:11:57.456Z,2.50
2018-01-15T19:14:25.810Z,2.50
2018-01-15T19:16:53.352Z,2.50
2018-01-15T19:19:20.975Z,2.60
2018-01-15T19:21:49.155Z,2.60
2018-01-15T19:24:16.759Z,2.50
2018-01-15T19:26:45.365Z,2.60
2018-01-15T19:29:12.924Z,2.50
2018-01-15T19:31:40.566Z,2.50
2018-01-15T19:34:08.540Z,2.50
2018-01-15T19:36:40.007Z,2.50
2018-01-15T19:39:12.725Z,2.40
2018-01-15T19:41:40.853Z,2.40
2018-01-15T19:44:27.270Z,2.50
2018-01-15T19:47:00.443Z,2.50
2018-01-15T19:49:33.551Z,2.40
2018-01-15T19:52:07.605Z,2.40
2018-01-15T19:54:40.870Z,2.30
2018-01-15T19:57:13.980Z,2.30
2018-01-15T19:59:47.049Z,2.30
2018-01-15T20:02:20.167Z,2.30
2018-01-15T20:04:54.213Z,2.40
2018-01-15T20:07:27.764Z,2.40
2018-01-15T20:10:01.737Z,2.40
2018-01-15T20:12:29.369Z,2.40
2018-01-15T20:14:57.049Z,2.40
2018-01-15T20:17:25.233Z,2.40
2018-01-15T20:19:52.835Z,2.50
2018-01-15T20:22:20.419Z,2.50
2018-01-15T20:24:48.202Z,2.60
2018-01-15T20:27:17.461Z,2.60
2018-01-15T20:29:45.225Z,2.60
2018-01-15T20:32:12.764Z,2.60
2018-01-15T20:34:40.345Z,2.60
2018-01-15T20:37:08.003Z,2.60
2018-01-15T20:39:35.783Z,2.50
2018-01-15T20:42:03.329Z,2.50
2018-01-15T20:44:30.935Z,2.30
2018-01-15T20:46:58.568Z,2.30
2018-01-15T20:49:27.069Z,2.30
2018-01-15T20:51:54.675Z,2.40
2018-01-15T20:54:22.331Z,2.30
2018-01-15T20:56:49.849Z,2.30
2018-01-15T20:59:17.587Z,2.30
2018-01-15T21:01:45.302Z,2.40
2018-01-15T21:04:13.142Z,2.40
2018-01-15T21:06:40.732Z,2.30
2018-01-15T21:09:09.066Z,2.50
2018-01-15T21:11:36.657Z,2.50
2018-01-15T21:14:04.215Z,2.50
2018-01-15T21:16:31.925Z,2.50
2018-01-15T21:18:59.482Z,2.40
2018-01-15T21:21:27.093Z,2.40
2018-01-15T21:23:54.691Z,2.50
2018-01-15T21:26:23.192Z,2.50
2018-01-15T21:28:50.862Z,2.40
2018-01-15T21:31:18.413Z,2.50
2018-01-15T21:33:45.976Z,2.50
2018-01-15T21:36:13.569Z,2.50
2018-01-15T21:38:41.189Z,2.50
2018-01-15T21:41:12.848Z,2.50
2018-01-15T21:43:41.593Z,2.50
2018-01-15T21:46:09.432Z,2.50
2018-01-15T21:48:37.033Z,2.40
2018-01-15T21:51:05.410Z,2.40
2018-01-15T21:53:32.962Z,2.40
2018-01-15T21:56:00.591Z,2.50
2018-01-15T21:58:28.145Z,2.50
2018-01-15T22:00:55.686Z,2.50
2018-01-15T22:03:23.280Z,2.50
2018-01-15T22:05:51.618Z,2.40
2018-01-15T22:08:19.238Z,2.40
2018-01-15T22:10:47.060Z,2.40
2018-01-15T22:13:14.613Z,2.40
2018-01-15T22:15:42.187Z,2.40
2018-01-15T22:18:09.839Z,2.50
2018-01-15T22:20:37.423Z,2.50
2018-01-15T22:23:05.236Z,2.50
2018-01-15T22:25:33.053Z,2.50
2018-01-15T22:28:01.387Z,2.50
2018-01-15T22:30:29.009Z,2.50
2018-01-15T22:32:56.668Z,2.60
2018-01-15T22:35:24.985Z,2.60
2018-01-15T22:37:52.744Z,2.60
2018-01-15T22:40:21.116Z,2.60
2018-01-15T22:42:49.503Z,2.60
2018-01-15T22:45:17.112Z,2.50
2018-01-15T22:47:44.720Z,2.60
2018-01-15T22:50:13.072Z,2.60
2018-01-15T22:52:40.636Z,2.50
2018-01-15T22:55:08.260Z,2.50
2018-01-15T22:57:35.826Z,2.50
2018-01-15T23:00:03.624Z,2.50
2018-01-15T23:02:32.043Z,2.40
2018-01-15T23:04:59.609Z,2.40
2018-01-15T23:07:27.246Z,2.40
2018-01-15T23:09:54.839Z,2.40
2018-01-15T23:12:22.410Z,2.30
2018-01-15T23:14:49.987Z,2.30
2018-01-15T23:17:17.605Z,2.30
2018-01-15T23:19:45.212Z,2.40
2018-01-15T23:22:12.804Z,2.40
2018-01-15T23:24:40.355Z,2.30
2018-01-15T23:27:08.013Z,2.40
2018-01-15T23:29:36.398Z,2.50
2018-01-15T23:32:04.754Z,2.40
2018-01-15T23:34:32.343Z,2.40
2018-01-15T23:37:00.680Z,2.40
2018-01-15T23:39:28.325Z,2.40
2018-01-15T23:41:55.871Z,2.20
2018-01-15T23:44:23.721Z,2.30
2018-01-15T23:46:51.252Z,2.20
2018-01-15T23:49:18.806Z,2.30
2018-01-15T23:51:46.380Z,2.30
2018-01-15T23:54:25.829Z,2.30
2018-01-15T23:56:53.378Z,2.40
2018-01-15T23:59:20.973Z,2.50
